Time;durP1;ratioP1;P1;durP2;ratioP2;P2;SDS_P1;SDS_P2;PMS_P1;PMS_P2;Temp;Humidity;BMP_temperature;BMP_pressure;BME280_temperature;BME280_humidity;BME280_pressure;Samples;Min_cycle;Max_cycle;Signal;HPM_P1;HPM_P2
2022/10/20 00:01:27;;;;;;;22.27;15.93;;;12.00;99.90;;;11.26;100.00;97219.38;6201586;23;20028;-67
2022/10/20 00:03:55;;;;;;;21.73;15.05;;;12.00;99.90;;;11.35;100.00;97227.63;6203447;23;20101;-67
2022/10/20 00:06:31;;;;;;;27.25;18.13;;;12.10;99.90;;;11.35;100.00;97214.63;6201472;23;20033;-69
2022/10/20 00:09:03;;;;;;;34.47;21.23;;;12.10;99.90;;;11.34;100.00;97211.19;6206972;23;20027;-67
2022/10/20 00:11:31;;;;;;;31.80;20.92;;;12.10;99.90;;;11.28;100.00;97211.50;6204776;23;20024;-67
2022/10/20 00:14:01;;;;;;;25.65;17.48;;;12.00;99.90;;;11.30;100.00;97205.31;6203172;23;20025;-67
2022/10/20 00:16:30;;;;;;;29.30;19.25;;;12.10;99.90;;;11.27;100.00;97197.69;6199120;23;20025;-67
2022/10/20 00:18:58;;;;;;;33.78;22.63;;;12.00;99.90;;;11.33;100.00;97182.69;6203497;23;20036;-67
2022/10/20 00:21:27;;;;;;;25.55;18.40;;;12.10;99.90;;;11.26;100.00;97184.75;6204582;23;20036;-67
2022/10/20 00:23:54;;;;;;;27.75;19.00;;;12.00;99.90;;;11.24;100.00;97177.06;6206164;23;20032;-67
2022/10/20 00:26:24;;;;;;;24.55;17.60;;;12.00;99.90;;;11.20;100.00;97175.53;6203454;23;20473;-67
2022/10/20 00:28:53;;;;;;;36.28;22.05;;;12.00;99.90;;;11.31;100.00;97172.38;6207016;23;20040;-70
2022/10/20 00:31:22;;;;;;;30.80;18.77;;;12.10;99.90;;;11.27;100.00;97170.88;6202759;23;20041;-67
2022/10/20 00:33:49;;;;;;;27.20;18.25;;;12.00;99.90;;;11.16;100.00;97171.41;6204280;23;20035;-70
2022/10/20 00:36:19;;;;;;;32.60;21.40;;;12.10;99.90;;;11.14;100.00;97164.63;6202727;23;20024;-67
2022/10/20 00:38:46;;;;;;;30.63;20.13;;;12.00;99.90;;;11.04;100.00;97152.09;6201187;23;20025;-70
2022/10/20 00:41:16;;;;;;;29.95;20.48;;;11.90;99.90;;;11.10;100.00;97145.75;6202796;23;20025;-67
2022/10/20 00:43:49;;;;;;;25.55;18.77;;;11.80;99.90;;;11.06;100.00;97139.03;6203443;23;20028;-67
2022/10/20 00:46:38;;;;;;;25.42;19.52;;;11.80;99.90;;;11.02;100.00;97140.13;6212353;23;20381;-70
2022/10/20 00:49:22;;;;;;;33.13;20.48;;;11.80;99.90;;;10.97;100.00;97145.56;6201321;23;20012;-70
2022/10/20 00:51:53;;;;;;;28.45;21.35;;;11.80;99.90;;;11.03;100.00;97146.97;6201472;23;20072;-67
2022/10/20 00:54:25;;;;;;;27.25;19.45;;;11.80;99.90;;;11.00;100.00;97145.38;6203102;23;20021;-67
2022/10/20 00:56:54;;;;;;;25.58;18.65;;;11.90;99.90;;;11.08;100.00;97135.47;6202814;23;20051;-67
2022/10/20 00:59:27;;;;;;;38.10;24.77;;;11.90;99.90;;;10.99;100.00;97132.47;6204579;23;20332;-67
2022/10/20 01:01:55;;;;;;;31.05;19.92;;;11.80;99.90;;;11.02;100.00;97138.34;6203727;23;20024;-69
2022/10/20 01:04:22;;;;;;;41.42;25.20;;;11.80;99.90;;;10.94;100.00;97145.69;6204223;23;20131;-67
2022/10/20 01:06:50;;;;;;;33.75;22.13;;;11.80;99.90;;;10.97;100.00;97144.69;6206744;23;20028;-67
2022/10/20 01:09:17;;;;;;;29.73;20.20;;;11.80;99.90;;;10.99;100.00;97133.34;6205865;23;20336;-69
2022/10/20 01:12:14;;;;;;;28.90;20.83;;;11.80;99.90;;;10.92;100.00;97134.53;6177646;23;20035;-69
2022/10/20 01:14:56;;;;;;;34.17;24.10;;;11.80;99.90;;;11.01;100.00;97141.03;6202288;23;20028;-67
2022/10/20 01:17:54;;;;;;;29.05;20.45;;;11.70;99.90;;;10.94;100.00;97137.91;6201575;23;20020;-67
2022/10/20 01:20:47;;;;;;;32.08;21.92;;;11.70;99.90;;;10.84;100.00;97140.13;6206218;23;20035;-69
2022/10/20 01:23:23;;;;;;;30.33;21.35;;;11.80;99.90;;;10.96;100.00;97143.03;6153498;23;20162;-70
2022/10/20 01:26:32;;;;;;;39.72;25.48;;;11.80;99.90;;;10.98;100.00;97143.78;6204058;23;20036;-67
2022/10/20 01:29:08;;;;;;;34.65;23.15;;;11.90;99.90;;;10.96;100.00;97143.03;6205774;23;20036;-67
2022/10/20 01:31:43;;;;;;;41.42;25.45;;;11.70;99.90;;;10.87;100.00;97131.34;6202848;23;20025;-67
2022/10/20 01:34:15;;;;;;;44.95;26.20;;;11.70;99.90;;;10.93;100.00;97123.25;6205703;23;20025;-66
2022/10/20 01:36:50;;;;;;;45.90;26.50;;;11.70;99.90;;;10.80;100.00;97104.84;6205735;23;20047;-69
2022/10/20 01:39:28;;;;;;;37.60;25.75;;;11.70;99.90;;;10.72;100.00;97108.75;6204309;23;20025;-69
2022/10/20 01:42:06;;;;;;;32.13;22.25;;;11.70;99.90;;;10.86;100.00;97101.13;6202944;23;20043;-69
2022/10/20 01:44:35;;;;;;;32.47;22.85;;;11.70;99.90;;;10.77;100.00;97101.59;6205105;23;20024;-69
2022/10/20 01:47:04;;;;;;;44.80;27.05;;;11.70;99.90;;;10.85;100.00;97102.84;6202208;23;20464;-69
2022/10/20 01:49:31;;;;;;;38.67;23.33;;;11.60;99.90;;;10.86;100.00;97103.72;6202992;23;20021;-70
2022/10/20 01:51:59;;;;;;;29.10;21.65;;;11.60;99.90;;;10.85;100.00;97102.84;6203533;23;20298;-69
2022/10/20 01:54:28;;;;;;;38.95;25.20;;;11.70;99.90;;;10.82;100.00;97095.22;6204855;23;20558;-69
2022/10/20 01:57:41;;;;;;;31.25;22.67;;;11.70;99.90;;;10.91;100.00;97085.31;6205963;23;20020;-68
2022/10/20 02:00:12;;;;;;;32.40;22.75;;;11.70;99.90;;;10.73;100.00;97089.69;6205126;23;20024;-69
2022/10/20 02:03:29;;;;;;;28.67;21.67;;;11.70;99.90;;;10.79;100.00;97082.41;6205307;23;20108;-68
2022/10/20 02:06:15;;;;;;;31.05;22.67;;;11.70;99.90;;;10.72;100.00;97087.97;6205314;23;20024;-69
2022/10/20 02:08:48;;;;;;;33.55;22.42;;;11.60;99.90;;;10.76;100.00;97089.50;6206084;23;20029;-69
2022/10/20 02:11:36;;;;;;;32.05;22.20;;;11.60;99.90;;;10.73;100.00;97082.72;6205043;23;20131;-68
2022/10/20 02:14:06;;;;;;;31.17;24.20;;;11.60;99.90;;;10.71;100.00;97079.38;6203484;23;20387;-69
2022/10/20 02:16:39;;;;;;;43.97;26.95;;;11.60;99.90;;;10.67;100.00;97081.28;6203024;23;20020;-69
2022/10/20 02:19:09;;;;;;;30.13;21.98;;;11.60;99.90;;;10.79;100.00;97073.81;6202068;23;20051;-69
2022/10/20 02:21:36;;;;;;;33.95;23.33;;;11.60;99.90;;;10.75;100.00;97069.69;6202524;23;20028;-69
2022/10/20 02:24:07;;;;;;;37.88;23.27;;;11.60;99.90;;;10.65;100.00;97074.47;6202645;23;20027;-69
2022/10/20 02:26:37;;;;;;;34.22;25.45;;;11.50;99.90;;;10.62;100.00;97072.88;6203041;23;20028;-69
2022/10/20 02:29:15;;;;;;;31.88;23.05;;;11.60;99.90;;;10.64;100.00;97078.00;6204639;23;20051;-69
2022/10/20 02:31:44;;;;;;;30.00;22.02;;;11.60;99.90;;;10.68;100.00;97069.16;6204090;23;20027;-69
2022/10/20 02:34:12;;;;;;;35.95;24.90;;;11.60;99.90;;;10.64;100.00;97076.25;6203995;23;20025;-68
2022/10/20 02:36:41;;;;;;;30.52;22.73;;;11.60;99.90;;;10.73;100.00;97072.34;6205713;23;20418;-69
2022/10/20 02:39:09;;;;;;;40.78;24.50;;;11.60;99.90;;;10.73;100.00;97056.75;6207014;23;20024;-69
2022/10/20 02:41:36;;;;;;;32.28;23.10;;;11.60;99.90;;;10.70;100.00;97058.66;6204431;23;20025;-69
2022/10/20 02:44:04;;;;;;;35.55;23.90;;;11.60;99.90;;;10.66;100.00;97060.59;6205047;23;20028;-69
2022/10/20 02:46:31;;;;;;;33.03;23.25;;;11.60;99.90;;;10.70;100.00;97059.53;6203753;23;20030;-69
2022/10/20 02:48:57;;;;;;;34.55;25.65;;;11.60;99.90;;;10.70;100.00;97058.66;6202801;23;20356;-69
2022/10/20 02:51:24;;;;;;;30.08;20.67;;;11.60;99.90;;;10.78;100.00;97065.16;6203731;23;20020;-69
2022/10/20 02:53:53;;;;;;;38.50;23.30;;;11.60;99.90;;;10.72;100.00;97062.88;6204610;23;20021;-69
2022/10/20 02:56:21;;;;;;;32.10;23.92;;;11.70;99.90;;;10.72;100.00;97056.84;6204906;23;20023;-69
2022/10/20 02:58:52;;;;;;;34.70;22.92;;;11.60;99.90;;;10.70;100.00;97056.06;6207002;23;20028;-69
2022/10/20 03:01:21;;;;;;;31.80;22.73;;;11.60;99.90;;;10.72;100.00;97057.69;6226937;23;20029;-69
2022/10/20 03:03:48;;;;;;;43.60;27.48;;;11.60;99.90;;;10.78;100.00;97052.16;6203893;23;20029;-69
2022/10/20 03:06:15;;;;;;;64.03;33.13;;;11.60;99.90;;;10.65;100.00;97043.31;6204597;23;20028;-69
2022/10/20 03:08:43;;;;;;;38.47;26.02;;;11.50;99.90;;;10.72;100.00;97036.94;6203447;23;20024;-69
2022/10/20 03:11:10;;;;;;;39.25;23.52;;;11.50;99.90;;;10.83;100.00;97036.34;6205784;23;20029;-69
2022/10/20 03:13:37;;;;;;;34.40;22.48;;;11.50;99.90;;;10.74;100.00;97042.03;6205595;23;20800;-69
2022/10/20 03:16:04;;;;;;;34.38;24.58;;;11.60;99.90;;;10.71;100.00;97035.25;6203670;23;20116;-69
2022/10/20 03:18:31;;;;;;;38.35;25.92;;;11.60;99.90;;;10.75;100.00;97034.16;6203273;23;20024;-69
2022/10/20 03:20:57;;;;;;;31.35;22.45;;;11.60;99.90;;;10.85;100.00;97030.16;6205721;23;20815;-69
2022/10/20 03:23:24;;;;;;;29.13;21.40;;;11.60;99.90;;;10.74;100.00;97027.31;6204648;23;20028;-69
2022/10/20 03:25:51;;;;;;;29.05;21.83;;;11.60;99.90;;;10.86;100.00;97029.25;6202886;23;20330;-69
2022/10/20 03:28:18;;;;;;;34.17;22.77;;;11.60;99.90;;;10.80;100.00;97021.78;6204980;23;20032;-68
2022/10/20 03:30:45;;;;;;;33.55;23.40;;;11.60;99.90;;;10.80;100.00;97026.13;6203829;23;20477;-68
2022/10/20 03:33:12;;;;;;;25.95;20.05;;;11.60;99.90;;;10.77;100.00;97027.13;6204727;23;20031;-68
2022/10/20 03:35:39;;;;;;;33.17;21.95;;;11.60;99.90;;;10.73;100.00;97025.63;6203155;23;20023;-68
2022/10/20 03:38:06;;;;;;;32.08;21.48;;;11.60;99.90;;;10.77;100.00;97034.09;6205606;23;20020;-68
2022/10/20 03:40:33;;;;;;;39.88;23.52;;;11.50;99.90;;;10.73;100.00;97028.22;6205938;23;20027;-68
2022/10/20 03:43:00;;;;;;;39.47;24.85;;;11.50;99.90;;;10.65;100.00;97019.97;6206557;23;20036;-67
2022/10/20 03:45:27;;;;;;;39.28;23.42;;;11.40;99.90;;;10.62;100.00;97013.19;6180130;23;20028;-68
2022/10/20 03:47:54;;;;;;;34.35;21.55;;;11.40;99.90;;;10.70;100.00;97006.75;6203594;23;20067;-67
2022/10/20 03:50:23;;;;;;;38.80;24.45;;;11.40;99.90;;;10.63;100.00;97014.06;6204872;23;20060;-67
2022/10/20 03:52:50;;;;;;;45.63;27.27;;;11.30;99.90;;;10.57;100.00;96999.63;6206784;23;20024;-68
2022/10/20 03:55:18;;;;;;;35.42;22.48;;;11.30;99.90;;;10.53;100.00;96994.66;6208323;23;20020;-67
2022/10/20 03:57:45;;;;;;;31.73;21.63;;;11.30;99.90;;;10.54;100.00;96996.34;6206112;23;20063;-68
2022/10/20 04:00:12;;;;;;;32.72;21.70;;;11.30;99.90;;;10.42;100.00;96998.66;6207073;23;20534;-67
2022/10/20 04:02:44;;;;;;;31.40;21.60;;;11.20;99.90;;;10.42;100.00;96993.47;6203615;23;20040;-68
2022/10/20 04:05:17;;;;;;;31.80;19.65;;;11.20;99.90;;;10.48;100.00;96994.06;6203884;23;20016;-67
2022/10/20 04:07:45;;;;;;;29.40;19.60;;;11.20;99.90;;;10.46;100.00;96994.97;6204250;23;20051;-67
2022/10/20 04:10:14;;;;;;;29.75;20.05;;;11.20;99.90;;;10.42;100.00;96980.50;6206888;23;20020;-68
2022/10/20 04:12:41;;;;;;;27.88;19.75;;;11.20;99.90;;;10.40;100.00;96984.06;6205699;23;20456;-68
2022/10/20 04:15:09;;;;;;;29.80;19.80;;;11.20;99.90;;;10.34;100.00;96971.44;6205050;23;20445;-68
2022/10/20 04:17:38;;;;;;;28.38;18.90;;;11.10;99.90;;;10.35;100.00;96971.34;6206672;23;20692;-68
2022/10/20 04:20:10;;;;;;;26.77;17.70;;;11.10;99.90;;;10.38;100.00;96966.00;6205728;23;20024;-68
2022/10/20 04:22:37;;;;;;;30.13;19.60;;;11.10;99.90;;;10.34;100.00;96954.09;6204713;23;20040;-68
2022/10/20 04:25:05;;;;;;;25.05;17.38;;;11.10;99.90;;;10.35;100.00;96952.34;6207650;23;20028;-67
2022/10/20 04:27:32;;;;;;;25.15;16.65;;;11.10;99.90;;;10.36;100.00;96954.03;6205480;23;20124;-67
2022/10/20 04:30:00;;;;;;;27.38;18.65;;;;;;;10.37;100.00;96966.91;6203419;23;20021;-67
2022/10/20 04:32:27;;;;;;;24.00;17.00;;;11.60;99.90;;;10.21;100.00;96969.41;6206001;23;20024;-70
2022/10/20 04:34:54;;;;;;;28.25;18.92;;;11.30;99.90;;;10.35;100.00;96968.75;6206329;23;20024;-67
2022/10/20 04:37:21;;;;;;;40.95;21.33;;;11.20;99.90;;;10.42;100.00;96974.44;6230065;23;20480;-67
2022/10/20 04:39:49;;;;;;;23.33;17.05;;;11.30;99.90;;;10.39;100.00;96975.47;6206411;23;20027;-67
2022/10/20 04:42:17;;;;;;;28.08;16.85;;;11.30;99.90;;;10.34;100.00;96972.25;6206733;23;20016;-67
2022/10/20 04:44:45;;;;;;;23.73;16.00;;;11.30;99.90;;;10.38;100.00;96978.97;6204918;23;20020;-69
2022/10/20 04:47:12;;;;;;;25.23;18.58;;;11.20;99.90;;;10.42;100.00;96972.72;6216678;23;20336;-69
2022/10/20 04:49:40;;;;;;;24.98;17.15;;;11.40;99.90;;;10.39;100.00;96974.63;6205037;23;20024;-69
2022/10/20 04:52:07;;;;;;;33.20;20.40;;;11.30;99.90;;;10.39;100.00;96974.63;6206426;23;20020;-69
2022/10/20 04:54:34;;;;;;;26.20;17.13;;;11.20;99.90;;;10.47;100.00;96972.47;6207068;23;20024;-67
2022/10/20 04:57:00;;;;;;;24.48;17.27;;;11.20;99.90;;;10.49;100.00;96974.97;6206440;23;20024;-69
2022/10/20 04:59:27;;;;;;;25.98;16.40;;;11.20;99.90;;;10.46;100.00;96973.38;6207287;23;20032;-67
2022/10/20 05:01:54;;;;;;;25.70;17.95;;;11.20;99.90;;;10.45;100.00;96969.13;6203424;23;20047;-70
2022/10/20 05:04:21;;;;;;;28.73;19.80;;;11.10;99.90;;;10.32;100.00;96963.72;6204031;23;20028;-67
2022/10/20 05:06:49;;;;;;;34.90;21.30;;;11.00;99.90;;;10.22;100.00;96965.09;6206802;23;20032;-69
2022/10/20 05:09:16;;;;;;;34.78;19.42;;;10.90;99.90;;;10.11;100.00;96969.97;6206622;23;20030;-69
2022/10/20 05:11:43;;;;;;;37.42;23.20;;;10.80;99.90;;;10.00;100.00;96966.16;6227979;23;20020;-69
2022/10/20 05:14:10;;;;;;;42.58;22.52;;;10.70;99.90;;;9.97;100.00;96961.13;6206619;23;20044;-69
2022/10/20 05:16:37;;;;;;;38.95;23.50;;;10.70;99.90;;;9.97;100.00;96955.94;6204818;23;20020;-69
2022/10/20 05:19:04;;;;;;;44.28;24.67;;;10.70;99.90;;;9.91;100.00;96963.19;6205882;23;20025;-69
2022/10/20 05:21:32;;;;;;;40.25;23.65;;;10.60;99.90;;;9.93;100.00;96956.19;6204755;23;20024;-69
2022/10/20 05:24:01;;;;;;;27.13;17.48;;;;;;;9.92;100.00;96951.91;6204961;23;20024;-69
2022/10/20 05:26:34;;;;;;;30.25;18.65;;;;;;;9.88;100.00;96971.13;6206766;23;20025;-69
2022/10/20 05:29:03;;;;;;;29.25;20.38;;;;;;;9.93;100.00;96969.13;6205597;23;20041;-69
2022/10/20 05:31:30;;;;;;;30.50;19.00;;;;;;;9.94;100.00;96963.03;6204774;23;20040;-69
2022/10/20 05:33:57;;;;;;;33.13;20.13;;;;;;;9.99;100.00;96966.22;6204609;23;20189;-69
2022/10/20 05:36:26;;;;;;;31.05;20.85;;;;;;;10.04;100.00;96975.47;6205064;23;20028;-69
2022/10/20 05:38:54;;;;;;;37.95;22.60;;;;;;;10.00;100.00;96976.53;6206463;23;20036;-69
2022/10/20 05:41:27;;;;;;;27.85;19.75;;;;;;;9.98;100.00;96975.75;6205679;23;20032;-69
2022/10/20 05:44:00;;;;;;;33.42;18.77;;;;;;;10.04;100.00;96990.19;6205892;23;20400;-69
2022/10/20 05:46:30;;;;;;;34.10;21.13;;;;;;;10.08;100.00;96996.03;6206503;23;20032;-69
2022/10/20 05:48:59;;;;;;;29.77;19.10;;;11.00;99.90;;;10.15;100.00;96977.53;6201478;23;20020;-69
2022/10/20 05:51:30;;;;;;;34.95;21.05;;;11.10;99.90;;;10.11;100.00;96970.81;6204102;23;20029;-69
2022/10/20 05:53:58;;;;;;;28.95;18.30;;;11.00;99.90;;;10.05;100.00;96978.88;6205034;23;20024;-69
2022/10/20 05:56:26;;;;;;;28.60;18.02;;;11.10;99.90;;;10.09;100.00;96992.56;6205065;23;20032;-69
2022/10/20 05:58:54;;;;;;;46.00;24.65;;;11.00;99.90;;;10.02;100.00;97000.63;6204938;23;20020;-69
2022/10/20 06:01:24;;;;;;;41.00;22.88;;;11.00;99.90;;;10.07;100.00;97010.78;6206171;23;20021;-69
2022/10/20 06:03:58;;;;;;;50.40;26.35;;;10.90;99.90;;;10.00;100.00;96994.69;6204688;23;20129;-69
2022/10/20 06:06:29;;;;;;;66.65;28.85;;;10.90;99.90;;;9.92;100.00;96988.19;6207077;23;20031;-68
2022/10/20 06:08:58;;;;;;;32.83;20.88;;;10.80;99.90;;;10.00;100.00;96984.31;6206832;23;20031;-69
2022/10/20 06:11:26;;;;;;;27.73;18.10;;;10.90;99.90;;;10.14;100.00;96982.78;6206151;23;20016;-69
2022/10/20 06:13:53;;;;;;;32.40;19.20;;;11.00;99.90;;;10.12;100.00;96977.66;6205733;23;20021;-69
2022/10/20 06:16:23;;;;;;;46.63;22.92;;;11.10;99.90;;;10.10;100.00;96984.69;6206884;23;20043;-69
2022/10/20 06:18:51;;;;;;;141.95;26.63;;;11.00;99.90;;;10.01;100.00;96970.44;6204375;23;20023;-69
2022/10/20 06:21:21;;;;;;;59.05;23.40;;;11.00;99.90;;;9.89;100.00;96971.03;6206607;23;20082;-69
2022/10/20 06:23:49;;;;;;;134.75;27.38;;;11.00;99.90;;;9.88;100.00;96969.38;6204486;23;20024;-69
2022/10/20 06:26:20;;;;;;;33.25;21.65;;;10.90;99.90;;;9.97;100.00;96963.72;6202387;23;20020;-69
2022/10/20 06:28:52;;;;;;;32.17;20.60;;;10.90;99.90;;;9.84;100.00;96980.81;6203742;23;20020;-69
2022/10/20 06:31:22;;;;;;;27.33;18.00;;;10.90;99.90;;;9.86;100.00;96978.97;6204575;23;20507;-69
2022/10/20 06:33:50;;;;;;;70.15;26.20;;;10.90;99.90;;;9.89;100.00;96978.81;6205173;23;20036;-69
2022/10/20 06:36:19;;;;;;;29.27;18.73;;;10.90;99.90;;;9.93;100.00;96976.91;6204285;23;20472;-69
2022/10/20 06:38:47;;;;;;;32.60;20.98;;;10.90;99.90;;;10.03;100.00;96973.81;6203231;23;20329;-69
2022/10/20 06:41:16;;;;;;;41.88;23.60;;;11.00;99.90;;;10.03;100.00;96968.63;6203793;23;20024;-68
2022/10/20 06:43:44;;;;;;;28.13;18.42;;;10.90;99.90;;;10.19;100.00;96971.25;6206255;23;20044;-67
2022/10/20 06:46:17;;;;;;;26.33;16.92;;;11.00;99.90;;;10.33;100.00;96968.00;6203901;23;20132;-67
2022/10/20 06:48:44;;;;;;;26.77;16.88;;;11.20;99.90;;;10.38;100.00;96963.41;6202753;23;20127;-67
2022/10/20 06:51:22;;;;;;;24.08;17.50;;;11.30;99.90;;;10.39;100.00;96980.66;6205716;23;20397;-67
2022/10/20 06:53:50;;;;;;;25.92;17.98;;;11.40;99.90;;;10.46;100.00;96975.97;6205935;23;20111;-67
2022/10/20 06:56:27;;;;;;;36.67;18.30;;;11.40;99.90;;;10.54;100.00;96973.00;6204148;23;20017;-67
2022/10/20 06:58:56;;;;;;;26.67;17.27;;;11.40;99.90;;;10.54;100.00;96973.00;6203547;23;20104;-67
2022/10/20 07:01:28;;;;;;;21.73;16.05;;;11.50;99.90;;;10.60;100.00;96957.94;6201909;23;20024;-67
2022/10/20 07:03:59;;;;;;;20.20;14.88;;;11.60;99.90;;;10.72;100.00;96950.41;6206191;23;20036;-67
2022/10/20 07:06:33;;;;;;;19.15;14.23;;;11.70;99.90;;;10.89;100.00;96951.19;6204671;23;20033;-67
2022/10/20 07:09:02;;;;;;;25.05;16.17;;;11.70;99.90;;;10.73;100.00;96952.09;6204825;23;20025;-68
2022/10/20 07:11:31;;;;;;;30.90;18.88;;;11.80;99.90;;;10.64;100.00;96953.41;6204204;23;20572;-68
2022/10/20 07:14:00;;;;;;;26.88;17.02;;;11.80;99.90;;;10.60;100.00;96957.09;6205641;23;20021;-67
2022/10/20 07:16:30;;;;;;;21.90;15.25;;;11.90;99.90;;;10.71;100.00;96954.78;6205460;23;20451;-68
2022/10/20 07:18:57;;;;;;;22.92;13.98;;;11.90;99.90;;;11.03;100.00;96952.22;6209104;23;20471;-68
2022/10/20 07:21:27;;;;;;;20.25;14.55;;;11.90;99.90;;;11.12;100.00;96950.88;6208276;23;20044;-67
2022/10/20 07:24:03;;;;;;;16.70;12.63;;;12.10;99.90;;;11.37;100.00;96950.34;6207236;23;20036;-67
2022/10/20 07:26:34;;;;;;;22.45;13.52;;;12.20;99.90;;;11.38;100.00;96962.41;6207322;23;20118;-67
2022/10/20 07:29:02;;;;;;;17.73;12.35;;;12.30;99.90;;;11.40;100.00;96974.38;6206272;23;20039;-67
2022/10/20 07:31:36;;;;;;;16.88;11.98;;;12.30;99.90;;;11.57;100.00;96986.47;6205467;23;20107;-67
2022/10/20 07:34:06;;;;;;;18.55;12.85;;;12.40;99.90;;;11.53;100.00;96992.75;6217724;23;20012;-67
2022/10/20 07:36:50;;;;;;;19.25;12.55;;;12.50;99.90;;;11.78;100.00;97001.78;6227785;23;20047;-67
2022/10/20 07:39:17;;;;;;;17.63;12.05;;;12.70;99.90;;;11.60;100.00;97003.66;6208434;23;20025;-67
2022/10/20 07:41:46;;;;;;;18.23;12.68;;;12.60;99.90;;;11.68;100.00;97001.47;6207397;23;20027;-68
2022/10/20 07:44:13;;;;;;;16.80;12.32;;;12.80;99.90;;;11.72;100.00;97006.41;6208114;23;20318;-67
2022/10/20 07:46:40;;;;;;;16.27;12.60;;;12.90;99.90;;;11.79;100.00;97008.63;6207935;23;20017;-67
2022/10/20 07:49:07;;;;;;;19.05;13.02;;;13.00;99.90;;;11.97;100.00;96997.22;6206889;23;20074;-68
2022/10/20 07:51:54;;;;;;;20.60;14.95;;;13.10;99.90;;;11.93;100.00;97001.78;6200643;23;20372;-67
2022/10/20 07:54:21;;;;;;;18.02;12.90;;;13.00;99.90;;;12.11;100.00;97012.88;6201647;23;20487;-68
2022/10/20 07:56:48;;;;;;;19.80;12.15;;;13.10;99.90;;;12.05;100.00;97012.41;6202510;23;20024;-68
2022/10/20 07:59:15;;;;;;;14.45;10.98;;;13.20;99.90;;;12.12;100.00;97009.34;6203986;23;20021;-68
2022/10/20 08:01:42;;;;;;;14.48;11.02;;;13.40;99.90;;;12.37;100.00;97018.34;6202887;23;20032;-67
2022/10/20 08:04:10;;;;;;;14.32;11.60;;;13.50;99.90;;;12.22;100.00;97022.66;6202548;23;20179;-68
2022/10/20 08:06:37;;;;;;;20.52;11.35;;;13.40;99.90;;;12.26;100.00;97016.34;6202484;23;20027;-68
2022/10/20 08:09:06;;;;;;;18.58;11.43;;;13.40;99.90;;;12.30;100.00;97024.81;6204093;23;20813;-68
2022/10/20 08:11:34;;;;;;;15.48;10.55;;;13.50;99.90;;;12.26;100.00;97015.53;6202538;23;20119;-68
2022/10/20 08:14:01;;;;;;;17.52;11.85;;;13.60;99.90;;;12.47;100.00;97010.81;6204558;23;20020;-68
2022/10/20 08:16:28;;;;;;;18.95;11.20;;;13.50;99.90;;;12.49;100.00;97020.19;6198484;23;20167;-68
2022/10/20 08:18:55;;;;;;;18.05;14.05;;;13.40;99.90;;;12.22;100.00;97021.81;6200620;23;20025;-67
2022/10/20 08:21:34;;;;;;;17.23;11.80;;;13.40;99.90;;;12.19;100.00;97022.84;6201166;23;20984;-68
2022/10/20 08:24:02;;;;;;;19.25;13.45;;;13.40;99.90;;;12.06;100.00;97029.66;6201984;23;20043;-67
2022/10/20 08:26:29;;;;;;;17.58;12.80;;;13.50;99.90;;;11.99;100.00;97042.19;6200411;23;20318;-67
2022/10/20 08:28:56;;;;;;;16.90;11.77;;;13.50;99.90;;;12.32;100.00;97021.22;6200982;23;20035;-68
2022/10/20 08:31:23;;;;;;;15.05;11.13;;;13.60;99.90;;;12.54;100.00;97030.34;6198750;23;20032;-68
2022/10/20 08:33:50;;;;;;;19.42;12.23;;;14.00;99.90;;;12.46;100.00;97032.56;6197184;23;20064;-68
2022/10/20 08:36:19;;;;;;;15.90;12.45;;;13.90;99.90;;;12.59;100.00;97024.84;6192906;23;20027;-68
2022/10/20 08:38:47;;;;;;;19.23;11.70;;;13.80;99.90;;;12.60;100.00;97031.75;6200028;23;20068;-68
2022/10/20 08:41:25;;;;;;;15.90;11.93;;;13.80;99.90;;;12.45;100.00;97029.16;6198688;23;20032;-68
2022/10/20 08:43:57;;;;;;;17.33;12.75;;;13.90;99.90;;;12.31;100.00;97035.13;6197732;23;20027;-68
2022/10/20 08:46:31;;;;;;;19.75;12.73;;;13.90;99.90;;;12.18;100.00;97039.41;6198687;23;20024;-68
2022/10/20 08:48:59;;;;;;;24.63;13.15;;;13.80;99.90;;;11.93;100.00;97048.59;6197806;23;20029;-68
2022/10/20 08:51:37;;;;;;;18.80;13.40;;;13.80;99.90;;;11.89;100.00;97044.47;6195823;23;20048;-67
2022/10/20 08:54:11;;;;;;;18.10;11.75;;;13.80;99.90;;;12.01;100.00;97039.50;6187450;23;20282;-67
2022/10/20 08:56:38;;;;;;;20.58;12.32;;;13.90;99.90;;;12.06;100.00;97037.47;6197121;23;20021;-67
2022/10/20 08:59:26;;;;;;;17.13;11.85;;;13.90;99.90;;;12.13;100.00;97031.84;6194012;23;20028;-67
2022/10/20 09:01:55;;;;;;;18.80;12.25;;;14.00;99.90;;;12.18;100.00;97034.19;6197465;23;20033;-68
2022/10/20 09:04:43;;;;;;;18.40;13.10;;;14.00;99.90;;;12.46;100.00;97023.00;6204645;23;20127;-68
2022/10/20 09:07:41;;;;;;;15.32;10.80;;;14.10;99.90;;;12.58;100.00;97018.81;6203181;23;20132;-67
2022/10/20 09:10:29;;;;;;;16.25;10.02;;;14.20;99.90;;;12.61;100.00;97016.03;6229007;23;20016;-68
2022/10/20 09:12:58;;;;;;;15.15;10.68;;;14.40;99.90;;;12.68;100.00;97008.69;6204721;23;20490;-68
2022/10/20 09:15:26;;;;;;;14.52;10.30;;;14.50;99.90;;;12.87;100.00;97016.25;6203285;23;20031;-67
2022/10/20 09:18:03;;;;;;;15.55;10.13;;;14.60;99.90;;;13.27;100.00;97011.16;6203888;23;20510;-68
2022/10/20 09:20:56;;;;;;;13.65;9.95;;;14.60;99.90;;;13.19;100.00;97012.50;6202177;23;20036;-68
2022/10/20 09:23:39;;;;;;;13.35;9.82;;;14.80;99.90;;;13.22;100.00;97015.84;6200733;23;20124;-68
2022/10/20 09:26:31;;;;;;;12.35;8.50;;;14.90;99.90;;;13.51;100.00;97017.47;6204727;23;20426;-68
2022/10/20 09:29:22;;;;;;;15.75;9.80;;;14.90;99.90;;;13.90;100.00;97013.25;6201827;23;20106;-68
2022/10/20 09:31:53;;;;;;;9.95;7.50;;;15.10;99.90;;;14.22;100.00;97015.53;6202608;23;20024;-68
2022/10/20 09:34:33;;;;;;;12.80;8.48;;;15.30;99.90;;;14.06;100.00;97020.09;6199920;23;20440;-68
2022/10/20 09:37:06;;;;;;;12.25;7.35;;;15.50;99.90;;;14.66;100.00;97014.34;6203608;23;20024;-68
2022/10/20 09:39:39;;;;;;;;;;;15.70;99.90;;;14.79;100.00;97014.34;6205056;23;20710;-68
2022/10/20 09:42:20;;;;;;;11.73;6.85;;;15.90;99.90;;;15.25;100.00;96998.06;6205436;23;19920;-68
2022/10/20 09:44:59;;;;;;;14.95;7.53;;;16.20;99.90;;;15.47;100.00;96994.78;6201711;23;20020;-68
2022/10/20 09:47:27;;;;;;;10.90;7.28;;;16.50;99.90;;;15.19;100.00;97001.97;6203825;23;20028;-68
2022/10/20 09:50:04;;;;;;;10.52;6.70;;;16.50;99.90;;;15.36;100.00;97002.53;6203585;23;20016;-67
2022/10/20 09:52:46;;;;;;;10.75;6.35;;;16.50;99.90;;;15.12;100.00;97008.56;6200996;23;20020;-68
2022/10/20 09:55:34;;;;;;;12.23;7.38;;;16.60;99.90;;;15.03;100.00;97017.06;6202192;23;20059;-68
2022/10/20 09:58:04;;;;;;;15.20;6.13;;;16.60;99.90;;;15.25;100.00;97006.75;6206019;23;20021;-68
2022/10/20 10:00:46;;;;;;;8.13;6.75;;;16.60;99.90;;;15.21;100.00;97000.09;6202525;23;20059;-68
2022/10/20 10:03:22;;;;;;;12.25;6.63;;;16.70;99.90;;;15.31;100.00;96994.19;6201753;23;20047;-68
2022/10/20 10:05:59;;;;;;;13.48;6.22;;;16.60;99.90;;;15.14;100.00;96998.81;6202035;23;20476;-67
2022/10/20 10:08:41;;;;;;;10.02;6.32;;;16.60;99.90;;;15.19;100.00;97006.34;6206340;23;20031;-68
2022/10/20 10:11:21;;;;;;;15.10;7.10;;;16.60;99.90;;;14.85;100.00;97012.16;6205041;23;20091;-68
2022/10/20 10:13:50;;;;;;;9.50;6.20;;;16.60;99.90;;;14.94;100.00;97009.81;6205403;23;20024;-68
2022/10/20 10:16:25;;;;;;;12.63;6.07;;;16.40;99.90;;;14.94;100.00;97018.53;6201660;23;20025;-68
2022/10/20 10:19:01;;;;;;;13.10;7.00;;;16.50;99.90;;;14.80;100.00;97024.72;6205394;23;20020;-68
2022/10/20 10:21:43;;;;;;;15.77;6.97;;;16.40;99.90;;;14.94;100.00;97022.91;6204859;23;20268;-68